sensor_id;sensor_type;location;lat;lon;timestamp;pressure;altitude;pressure_sealevel;temperature;humidity
73297;BME280;61524;50.938;11.396;2023-07-13T00:01:12;98813.91;;;20.05;70.17
73297;BME280;61524;50.938;11.396;2023-07-13T00:03:38;98818.06;;;20.02;70.05
73297;BME280;61524;50.938;11.396;2023-07-13T00:06:07;98803.03;;;19.96;71.06
73297;BME280;61524;50.938;11.396;2023-07-13T00:08:33;98804.53;;;19.71;72.05
73297;BME280;61524;50.938;11.396;2023-07-13T00:11:00;98817.16;;;19.53;72.62
73297;BME280;61524;50.938;11.396;2023-07-13T00:13:26;98827.06;;;19.58;73.09
73297;BME280;61524;50.938;11.396;2023-07-13T00:15:51;98830.88;;;19.48;72.80
73297;BME280;61524;50.938;11.396;2023-07-13T00:18:19;98851.06;;;19.42;72.38
73297;BME280;61524;50.938;11.396;2023-07-13T00:20:44;98846.47;;;19.43;72.33
73297;BME280;61524;50.938;11.396;2023-07-13T00:23:10;98845.50;;;19.47;72.77
73297;BME280;61524;50.938;11.396;2023-07-13T00:25:35;98853.59;;;19.38;73.38
73297;BME280;61524;50.938;11.396;2023-07-13T00:28:01;98851.31;;;19.32;74.51
73297;BME280;61524;50.938;11.396;2023-07-13T00:30:27;98866.50;;;19.41;74.10
73297;BME280;61524;50.938;11.396;2023-07-13T00:32:52;98861.72;;;19.38;74.09
73297;BME280;61524;50.938;11.396;2023-07-13T00:35:18;98850.75;;;19.44;73.23
73297;BME280;61524;50.938;11.396;2023-07-13T00:37:44;98860.94;;;19.38;73.15
73297;BME280;61524;50.938;11.396;2023-07-13T00:40:12;98853.47;;;19.44;72.87
73297;BME280;61524;50.938;11.396;2023-07-13T00:42:38;98850.75;;;19.44;72.56
73297;BME280;61524;50.938;11.396;2023-07-13T00:47:39;98856.31;;;19.38;74.79
73297;BME280;61524;50.938;11.396;2023-07-13T00:50:07;98848.19;;;19.38;75.34
73297;BME280;61524;50.938;11.396;2023-07-13T00:52:35;98842.44;;;19.40;73.90
73297;BME280;61524;50.938;11.396;2023-07-13T00:55:01;98843.69;;;19.34;73.75
73297;BME280;61524;50.938;11.396;2023-07-13T00:57:28;98836.34;;;19.34;73.30
73297;BME280;61524;50.938;11.396;2023-07-13T00:59:55;98845.34;;;19.44;73.17
73297;BME280;61524;50.938;11.396;2023-07-13T01:02:22;98846.25;;;19.39;73.99
73297;BME280;61524;50.938;11.396;2023-07-13T01:04:49;98851.94;;;19.29;75.10
73297;BME280;61524;50.938;11.396;2023-07-13T01:07:14;98860.06;;;19.29;75.97
73297;BME280;61524;50.938;11.396;2023-07-13T01:09:40;98864.00;;;19.23;75.82
73297;BME280;61524;50.938;11.396;2023-07-13T01:12:06;98862.53;;;19.17;75.86
73297;BME280;61524;50.938;11.396;2023-07-13T01:14:32;98862.41;;;19.22;75.77
73297;BME280;61524;50.938;11.396;2023-07-13T01:16:58;98851.81;;;19.11;76.24
73297;BME280;61524;50.938;11.396;2023-07-13T01:22:01;98869.28;;;19.05;76.08
73297;BME280;61524;50.938;11.396;2023-07-13T01:24:27;98869.47;;;19.09;75.64
73297;BME280;61524;50.938;11.396;2023-07-13T01:26:52;98861.34;;;19.09;75.29
73297;BME280;61524;50.938;11.396;2023-07-13T01:29:18;98860.41;;;19.13;75.03
73297;BME280;61524;50.938;11.396;2023-07-13T01:31:43;98854.44;;;19.03;74.97
73297;BME280;61524;50.938;11.396;2023-07-13T01:34:10;98848.66;;;18.96;75.30
73297;BME280;61524;50.938;11.396;2023-07-13T01:36:35;98852.06;;;19.01;75.34
73297;BME280;61524;50.938;11.396;2023-07-13T01:39:02;98853.56;;;18.94;75.47
73297;BME280;61524;50.938;11.396;2023-07-13T01:41:27;98845.56;;;18.88;74.86
73297;BME280;61524;50.938;11.396;2023-07-13T01:43:53;98843.28;;;18.82;75.30
73297;BME280;61524;50.938;11.396;2023-07-13T01:46:18;98818.66;;;18.56;75.80
73297;BME280;61524;50.938;11.396;2023-07-13T01:48:44;98840.13;;;18.52;77.37
73297;BME280;61524;50.938;11.396;2023-07-13T01:51:09;98840.75;;;18.35;77.88
73297;BME280;61524;50.938;11.396;2023-07-13T01:53:34;98850.25;;;18.33;78.06
73297;BME280;61524;50.938;11.396;2023-07-13T01:56:00;98842.34;;;18.23;78.22
73297;BME280;61524;50.938;11.396;2023-07-13T01:58:25;98852.28;;;18.27;77.10
73297;BME280;61524;50.938;11.396;2023-07-13T02:00:51;98855.78;;;18.28;77.54
73297;BME280;61524;50.938;11.396;2023-07-13T02:03:17;98857.88;;;18.31;76.92
73297;BME280;61524;50.938;11.396;2023-07-13T02:05:44;98865.91;;;18.36;75.99
73297;BME280;61524;50.938;11.396;2023-07-13T02:08:10;98874.50;;;18.38;74.10
73297;BME280;61524;50.938;11.396;2023-07-13T02:10:36;98866.88;;;18.40;72.15
73297;BME280;61524;50.938;11.396;2023-07-13T02:13:05;98872.56;;;18.66;71.60
73297;BME280;61524;50.938;11.396;2023-07-13T02:15:31;98868.97;;;18.71;71.25
73297;BME280;61524;50.938;11.396;2023-07-13T02:17:56;98865.38;;;18.75;71.87
73297;BME280;61524;50.938;11.396;2023-07-13T02:20:24;98867.97;;;18.80;71.56
73297;BME280;61524;50.938;11.396;2023-07-13T02:22:49;98868.16;;;18.84;71.25
73297;BME280;61524;50.938;11.396;2023-07-13T02:25:15;98873.00;;;18.73;72.38
73297;BME280;61524;50.938;11.396;2023-07-13T02:27:40;98878.38;;;18.59;72.96
73297;BME280;61524;50.938;11.396;2023-07-13T02:30:06;98885.81;;;18.40;75.28
73297;BME280;61524;50.938;11.396;2023-07-13T02:32:32;98880.44;;;18.26;76.51
73297;BME280;61524;50.938;11.396;2023-07-13T02:34:59;98865.00;;;17.99;78.58
73297;BME280;61524;50.938;11.396;2023-07-13T02:37:24;98867.56;;;17.91;79.74
73297;BME280;61524;50.938;11.396;2023-07-13T02:39:50;98878.91;;;17.93;79.25
73297;BME280;61524;50.938;11.396;2023-07-13T02:42:15;98878.03;;;17.97;79.46
73297;BME280;61524;50.938;11.396;2023-07-13T02:44:41;98874.78;;;17.81;78.69
73297;BME280;61524;50.938;11.396;2023-07-13T02:47:06;98871.66;;;17.74;78.78
73297;BME280;61524;50.938;11.396;2023-07-13T02:49:32;98878.44;;;17.72;79.40
73297;BME280;61524;50.938;11.396;2023-07-13T02:51:57;98880.09;;;17.54;79.45
73297;BME280;61524;50.938;11.396;2023-07-13T02:54:23;98877.38;;;17.54;78.63
73297;BME280;61524;50.938;11.396;2023-07-13T02:56:48;98882.00;;;17.53;78.33
73297;BME280;61524;50.938;11.396;2023-07-13T02:59:14;98876.81;;;17.57;78.09
73297;BME280;61524;50.938;11.396;2023-07-13T03:01:39;98874.03;;;17.62;79.24
73297;BME280;61524;50.938;11.396;2023-07-13T03:04:06;98877.03;;;17.61;78.28
73297;BME280;61524;50.938;11.396;2023-07-13T03:06:32;98884.97;;;17.71;76.95
73297;BME280;61524;50.938;11.396;2023-07-13T03:08:58;98896.94;;;17.65;77.81
73297;BME280;61524;50.938;11.396;2023-07-13T03:11:25;98888.63;;;17.61;77.30
73297;BME280;61524;50.938;11.396;2023-07-13T03:13:51;98890.88;;;17.54;77.05
73297;BME280;61524;50.938;11.396;2023-07-13T03:16:17;98889.69;;;17.46;77.35
73297;BME280;61524;50.938;11.396;2023-07-13T03:18:42;98891.09;;;17.44;77.52
73297;BME280;61524;50.938;11.396;2023-07-13T03:21:08;98894.38;;;17.41;77.85
73297;BME280;61524;50.938;11.396;2023-07-13T03:23:34;98891.91;;;17.25;77.35
73297;BME280;61524;50.938;11.396;2023-07-13T03:26:14;98902.28;;;17.18;78.02
73297;BME280;61524;50.938;11.396;2023-07-13T03:28:41;98897.59;;;17.05;78.90
73297;BME280;61524;50.938;11.396;2023-07-13T03:31:08;98899.31;;;17.01;78.79
73297;BME280;61524;50.938;11.396;2023-07-13T03:33:34;98900.91;;;17.02;77.13
73297;BME280;61524;50.938;11.396;2023-07-13T03:36:00;98906.59;;;17.00;77.65
73297;BME280;61524;50.938;11.396;2023-07-13T03:38:26;98897.97;;;16.98;76.72
73297;BME280;61524;50.938;11.396;2023-07-13T03:40:52;98906.22;;;16.88;77.14
73297;BME280;61524;50.938;11.396;2023-07-13T03:43:18;98915.16;;;16.84;77.71
73297;BME280;61524;50.938;11.396;2023-07-13T03:45:43;98911.41;;;16.85;77.22
73297;BME280;61524;50.938;11.396;2023-07-13T03:48:09;98918.91;;;16.88;77.78
73297;BME280;61524;50.938;11.396;2023-07-13T03:50:34;98916.13;;;16.74;77.64
73297;BME280;61524;50.938;11.396;2023-07-13T03:53:00;98920.53;;;16.65;78.50
73297;BME280;61524;50.938;11.396;2023-07-13T03:55:26;98909.22;;;16.63;79.23
73297;BME280;61524;50.938;11.396;2023-07-13T03:57:54;98911.41;;;16.61;78.64
73297;BME280;61524;50.938;11.396;2023-07-13T04:00:22;98911.31;;;16.71;77.43
73297;BME280;61524;50.938;11.396;2023-07-13T04:02:48;98922.63;;;16.92;76.98
73297;BME280;61524;50.938;11.396;2023-07-13T04:05:15;98926.88;;;16.79;78.13
73297;BME280;61524;50.938;11.396;2023-07-13T04:07:40;98937.75;;;16.69;78.56
73297;BME280;61524;50.938;11.396;2023-07-13T04:10:06;98928.84;;;16.68;77.76
73297;BME280;61524;50.938;11.396;2023-07-13T04:12:31;98933.28;;;16.59;78.53
73297;BME280;61524;50.938;11.396;2023-07-13T04:14:57;98928.84;;;16.68;77.61
73297;BME280;61524;50.938;11.396;2023-07-13T04:17:22;98920.50;;;16.89;77.19
73297;BME280;61524;50.938;11.396;2023-07-13T04:19:48;98939.72;;;17.44;75.99
73297;BME280;61524;50.938;11.396;2023-07-13T04:22:14;98937.09;;;18.18;73.97
73297;BME280;61524;50.938;11.396;2023-07-13T04:24:40;98933.13;;;18.70;72.60
73297;BME280;61524;50.938;11.396;2023-07-13T04:27:06;98943.22;;;19.06;71.35
73297;BME280;61524;50.938;11.396;2023-07-13T04:29:31;98938.63;;;19.51;70.25
73297;BME280;61524;50.938;11.396;2023-07-13T04:31:57;98939.75;;;19.95;69.76
73297;BME280;61524;50.938;11.396;2023-07-13T04:34:22;98937.16;;;20.21;69.43
73297;BME280;61524;50.938;11.396;2023-07-13T04:36:49;98937.56;;;20.06;69.32
73297;BME280;61524;50.938;11.396;2023-07-13T04:39:15;98940.34;;;20.23;67.67
73297;BME280;61524;50.938;11.396;2023-07-13T04:41:40;98952.44;;;20.08;68.00
73297;BME280;61524;50.938;11.396;2023-07-13T04:44:06;98952.41;;;20.39;67.13
73297;BME280;61524;50.938;11.396;2023-07-13T04:46:31;98947.88;;;20.57;65.94
73297;BME280;61524;50.938;11.396;2023-07-13T04:48:57;98953.88;;;20.45;68.35
73297;BME280;61524;50.938;11.396;2023-07-13T04:51:24;98941.03;;;20.68;67.25
73297;BME280;61524;50.938;11.396;2023-07-13T04:53:49;98950.19;;;20.90;66.28
73297;BME280;61524;50.938;11.396;2023-07-13T04:56:14;98950.97;;;20.42;66.55
73297;BME280;61524;50.938;11.396;2023-07-13T04:58:40;98951.19;;;21.29;64.60
73297;BME280;61524;50.938;11.396;2023-07-13T05:01:06;98956.97;;;21.70;63.32
73297;BME280;61524;50.938;11.396;2023-07-13T05:03:32;98954.41;;;21.74;63.72
73297;BME280;61524;50.938;11.396;2023-07-13T05:06:04;98952.13;;;21.85;63.45
73297;BME280;61524;50.938;11.396;2023-07-13T05:08:30;98947.72;;;22.27;62.83
73297;BME280;61524;50.938;11.396;2023-07-13T05:10:56;98958.41;;;22.70;60.87
73297;BME280;61524;50.938;11.396;2023-07-13T05:13:22;98962.09;;;23.04;59.69
73297;BME280;61524;50.938;11.396;2023-07-13T05:15:56;98955.03;;;23.45;58.52
73297;BME280;61524;50.938;11.396;2023-07-13T05:18:22;98963.69;;;23.47;58.61
73297;BME280;61524;50.938;11.396;2023-07-13T05:20:57;98961.81;;;23.60;57.67
73297;BME280;61524;50.938;11.396;2023-07-13T05:23:23;98968.34;;;24.58;54.49
73297;BME280;61524;50.938;11.396;2023-07-13T05:25:49;98967.72;;;23.82;57.03
73297;BME280;61524;50.938;11.396;2023-07-13T05:28:14;98962.78;;;24.09;57.16
73297;BME280;61524;50.938;11.396;2023-07-13T05:30:39;98968.34;;;23.67;57.68
73297;BME280;61524;50.938;11.396;2023-07-13T05:33:05;98964.19;;;23.61;57.37
73297;BME280;61524;50.938;11.396;2023-07-13T05:35:30;98973.81;;;24.00;55.97
73297;BME280;61524;50.938;11.396;2023-07-13T05:37:56;98977.38;;;23.80;56.35
73297;BME280;61524;50.938;11.396;2023-07-13T05:40:21;98975.97;;;23.95;56.31
73297;BME280;61524;50.938;11.396;2023-07-13T05:42:46;98973.88;;;23.38;57.68
73297;BME280;61524;50.938;11.396;2023-07-13T05:45:12;98973.53;;;23.18;58.74
73297;BME280;61524;50.938;11.396;2023-07-13T05:47:37;98974.63;;;24.13;57.01
73297;BME280;61524;50.938;11.396;2023-07-13T05:50:03;98968.59;;;25.70;53.97
73297;BME280;61524;50.938;11.396;2023-07-13T05:52:29;98968.25;;;25.44;53.23
73297;BME280;61524;50.938;11.396;2023-07-13T05:54:54;98974.91;;;23.87;56.39
73297;BME280;61524;50.938;11.396;2023-07-13T05:57:19;98967.75;;;23.20;57.99
73297;BME280;61524;50.938;11.396;2023-07-13T05:59:45;98978.00;;;23.44;59.90
73297;BME280;61524;50.938;11.396;2023-07-13T06:02:10;98968.47;;;23.08;58.36
73297;BME280;61524;50.938;11.396;2023-07-13T06:04:36;98977.28;;;22.75;61.01
73297;BME280;61524;50.938;11.396;2023-07-13T06:07:01;98974.44;;;22.34;62.67
73297;BME280;61524;50.938;11.396;2023-07-13T06:09:27;98980.78;;;22.46;62.93
73297;BME280;61524;50.938;11.396;2023-07-13T06:11:52;98978.00;;;23.65;59.86
73297;BME280;61524;50.938;11.396;2023-07-13T06:14:18;98989.34;;;23.46;59.38
73297;BME280;61524;50.938;11.396;2023-07-13T06:16:43;98984.22;;;23.02;60.00
73297;BME280;61524;50.938;11.396;2023-07-13T06:19:08;98996.09;;;23.27;60.58
73297;BME280;61524;50.938;11.396;2023-07-13T06:21:34;98990.00;;;23.01;60.76
73297;BME280;61524;50.938;11.396;2023-07-13T06:23:59;98991.06;;;22.88;60.18
73297;BME280;61524;50.938;11.396;2023-07-13T06:26:25;99003.81;;;23.46;59.57
73297;BME280;61524;50.938;11.396;2023-07-13T06:28:50;99001.66;;;23.10;59.33
73297;BME280;61524;50.938;11.396;2023-07-13T06:31:16;99007.09;;;23.10;60.03
73297;BME280;61524;50.938;11.396;2023-07-13T06:33:41;98996.81;;;24.69;55.96
73297;BME280;61524;50.938;11.396;2023-07-13T06:36:07;98999.53;;;24.57;56.74
73297;BME280;61524;50.938;11.396;2023-07-13T06:38:34;98994.38;;;25.69;54.16
73297;BME280;61524;50.938;11.396;2023-07-13T06:40:59;98997.69;;;25.75;51.96
73297;BME280;61524;50.938;11.396;2023-07-13T06:43:25;98994.09;;;26.30;51.67
73297;BME280;61524;50.938;11.396;2023-07-13T06:45:53;99008.50;;;26.27;52.12
73297;BME280;61524;50.938;11.396;2023-07-13T06:48:19;99011.56;;;26.85;49.69
73297;BME280;61524;50.938;11.396;2023-07-13T06:50:46;99015.25;;;25.21;52.09
73297;BME280;61524;50.938;11.396;2023-07-13T06:53:12;98998.25;;;25.40;53.11
73297;BME280;61524;50.938;11.396;2023-07-13T06:55:38;99010.50;;;24.24;54.04
73297;BME280;61524;50.938;11.396;2023-07-13T06:58:04;99014.13;;;23.82;54.22
73297;BME280;61524;50.938;11.396;2023-07-13T07:00:29;99007.25;;;23.55;55.56
73297;BME280;61524;50.938;11.396;2023-07-13T07:02:55;99012.75;;;25.16;52.23
73297;BME280;61524;50.938;11.396;2023-07-13T07:05:21;99007.16;;;25.77;51.24
73297;BME280;61524;50.938;11.396;2023-07-13T07:07:51;99011.75;;;26.61;49.06
73297;BME280;61524;50.938;11.396;2023-07-13T07:10:17;99013.69;;;26.45;49.38
73297;BME280;61524;50.938;11.396;2023-07-13T07:12:43;99001.59;;;26.17;49.68
73297;BME280;61524;50.938;11.396;2023-07-13T07:15:08;99010.84;;;26.57;48.35
73297;BME280;61524;50.938;11.396;2023-07-13T07:17:34;99017.38;;;26.84;47.67
73297;BME280;61524;50.938;11.396;2023-07-13T07:19:59;99022.66;;;26.29;49.34
73297;BME280;61524;50.938;11.396;2023-07-13T07:22:25;99007.03;;;26.61;48.82
73297;BME280;61524;50.938;11.396;2023-07-13T07:24:56;99009.22;;;27.19;47.87
73297;BME280;61524;50.938;11.396;2023-07-13T07:27:23;99005.69;;;27.03;47.81
73297;BME280;61524;50.938;11.396;2023-07-13T07:29:49;99007.94;;;26.81;47.42
73297;BME280;61524;50.938;11.396;2023-07-13T07:32:15;99018.63;;;26.71;46.96
73297;BME280;61524;50.938;11.396;2023-07-13T07:34:41;99011.50;;;27.17;46.83
73297;BME280;61524;50.938;11.396;2023-07-13T07:37:06;98998.78;;;27.63;46.92
73297;BME280;61524;50.938;11.396;2023-07-13T07:39:32;98999.72;;;29.28;43.48
73297;BME280;61524;50.938;11.396;2023-07-13T07:41:58;99016.66;;;29.03;44.22
73297;BME280;61524;50.938;11.396;2023-07-13T07:44:23;99014.16;;;27.48;47.26
73297;BME280;61524;50.938;11.396;2023-07-13T07:46:49;99015.03;;;28.11;45.50
73297;BME280;61524;50.938;11.396;2023-07-13T07:49:14;99013.28;;;28.22;46.66
73297;BME280;61524;50.938;11.396;2023-07-13T07:51:40;99005.31;;;27.20;47.97
73297;BME280;61524;50.938;11.396;2023-07-13T07:54:06;99002.47;;;27.52;49.19
73297;BME280;61524;50.938;11.396;2023-07-13T07:56:32;99015.09;;;28.14;48.54
73297;BME280;61524;50.938;11.396;2023-07-13T07:58:57;99006.66;;;28.69;44.12
73297;BME280;61524;50.938;11.396;2023-07-13T08:01:23;99000.38;;;27.45;46.36
73297;BME280;61524;50.938;11.396;2023-07-13T08:03:48;99005.69;;;28.84;45.70
73297;BME280;61524;50.938;11.396;2023-07-13T08:06:14;99015.09;;;28.57;44.98
73297;BME280;61524;50.938;11.396;2023-07-13T08:08:39;99011.56;;;28.14;45.64
73297;BME280;61524;50.938;11.396;2023-07-13T08:11:06;99011.84;;;27.31;46.38
73297;BME280;61524;50.938;11.396;2023-07-13T08:13:33;99021.13;;;27.62;45.30
73297;BME280;61524;50.938;11.396;2023-07-13T08:15:59;99009.22;;;27.93;47.38
73297;BME280;61524;50.938;11.396;2023-07-13T08:18:25;99009.97;;;28.13;45.65
73297;BME280;61524;50.938;11.396;2023-07-13T08:20:51;99000.19;;;27.03;44.51
73297;BME280;61524;50.938;11.396;2023-07-13T08:23:17;98999.00;;;26.53;45.87
73297;BME280;61524;50.938;11.396;2023-07-13T08:25:42;99012.97;;;26.63;44.92
73297;BME280;61524;50.938;11.396;2023-07-13T08:28:08;98995.88;;;27.02;44.20
73297;BME280;61524;50.938;11.396;2023-07-13T08:30:34;99001.13;;;26.43;44.42
73297;BME280;61524;50.938;11.396;2023-07-13T08:32:59;98984.03;;;26.82;44.39
73297;BME280;61524;50.938;11.396;2023-07-13T08:35:25;98993.47;;;27.16;41.99
73297;BME280;61524;50.938;11.396;2023-07-13T08:37:51;99007.47;;;26.63;43.97
73297;BME280;61524;50.938;11.396;2023-07-13T08:40:19;99009.09;;;26.49;44.87
73297;BME280;61524;50.938;11.396;2023-07-13T08:42:54;98993.91;;;26.07;44.76
73297;BME280;61524;50.938;11.396;2023-07-13T08:48:02;99000.56;;;25.26;46.58
73297;BME280;61524;50.938;11.396;2023-07-13T08:50:33;99009.25;;;25.16;46.31
73297;BME280;61524;50.938;11.396;2023-07-13T08:53:02;99025.94;;;24.41;46.75
73297;BME280;61524;50.938;11.396;2023-07-13T08:55:34;99021.75;;;24.68;46.42
73297;BME280;61524;50.938;11.396;2023-07-13T08:58:12;99014.81;;;24.82;47.47
73297;BME280;61524;50.938;11.396;2023-07-13T09:01:02;99021.31;;;25.79;46.77
73297;BME280;61524;50.938;11.396;2023-07-13T09:03:52;99011.94;;;25.80;45.18
73297;BME280;61524;50.938;11.396;2023-07-13T09:06:29;99010.34;;;26.23;46.16
73297;BME280;61524;50.938;11.396;2023-07-13T09:09:02;99016.13;;;27.13;44.65
73297;BME280;61524;50.938;11.396;2023-07-13T09:11:54;99006.19;;;27.24;43.88
73297;BME280;61524;50.938;11.396;2023-07-13T09:14:42;99011.59;;;27.20;42.02
73297;BME280;61524;50.938;11.396;2023-07-13T09:17:30;99009.88;;;26.49;42.83
73297;BME280;61524;50.938;11.396;2023-07-13T09:20:03;99012.34;;;25.95;42.12
73297;BME280;61524;50.938;11.396;2023-07-13T09:22:36;99009.09;;;26.49;42.23
73297;BME280;61524;50.938;11.396;2023-07-13T09:25:30;99011.41;;;25.62;42.69
73297;BME280;61524;50.938;11.396;2023-07-13T09:28:05;99020.16;;;25.40;43.75
73297;BME280;61524;50.938;11.396;2023-07-13T09:31:04;99016.03;;;25.34;43.84
73297;BME280;61524;50.938;11.396;2023-07-13T09:33:31;99010.09;;;26.28;42.87
73297;BME280;61524;50.938;11.396;2023-07-13T09:35:58;99022.97;;;26.12;42.53
73297;BME280;61524;50.938;11.396;2023-07-13T09:38:28;99014.38;;;25.57;42.99
73297;BME280;61524;50.938;11.396;2023-07-13T09:44:10;99015.94;;;25.99;41.74
73297;BME280;61524;50.938;11.396;2023-07-13T09:46:37;99018.16;;;27.00;42.51
73297;BME280;61524;50.938;11.396;2023-07-13T09:49:03;99014.22;;;27.33;40.19
73297;BME280;61524;50.938;11.396;2023-07-13T09:51:28;99019.53;;;27.80;41.69
73297;BME280;61524;50.938;11.396;2023-07-13T09:53:54;99022.81;;;27.31;40.79
73297;BME280;61524;50.938;11.396;2023-07-13T09:56:27;99029.41;;;26.79;41.75
73297;BME280;61524;50.938;11.396;2023-07-13T09:58:53;99032.81;;;26.29;41.40
73297;BME280;61524;50.938;11.396;2023-07-13T10:01:38;99037.81;;;26.71;40.94
73297;BME280;61524;50.938;11.396;2023-07-13T10:04:14;99034.88;;;27.11;39.69
73297;BME280;61524;50.938;11.396;2023-07-13T10:06:41;99036.63;;;27.54;38.58
73297;BME280;61524;50.938;11.396;2023-07-13T10:09:08;99031.91;;;27.90;39.05
73297;BME280;61524;50.938;11.396;2023-07-13T10:11:35;99031.13;;;27.35;39.31
73297;BME280;61524;50.938;11.396;2023-07-13T10:14:15;99025.97;;;27.14;40.74
73297;BME280;61524;50.938;11.396;2023-07-13T10:16:43;99028.09;;;27.59;40.54
73297;BME280;61524;50.938;11.396;2023-07-13T10:19:22;99036.13;;;27.48;40.06
73297;BME280;61524;50.938;11.396;2023-07-13T10:24:29;99030.06;;;27.59;39.47
73297;BME280;61524;50.938;11.396;2023-07-13T10:27:10;99024.94;;;27.22;39.37
73297;BME280;61524;50.938;11.396;2023-07-13T10:29:46;99034.09;;;26.63;40.79
73297;BME280;61524;50.938;11.396;2023-07-13T10:32:12;99030.25;;;26.36;40.39
73297;BME280;61524;50.938;11.396;2023-07-13T10:34:40;99040.53;;;25.95;41.30
73297;BME280;61524;50.938;11.396;2023-07-13T10:37:16;99035.53;;;25.85;41.41
73297;BME280;61524;50.938;11.396;2023-07-13T10:39:43;99044.84;;;25.96;41.53
73297;BME280;61524;50.938;11.396;2023-07-13T10:42:14;99044.44;;;25.70;42.34
73297;BME280;61524;50.938;11.396;2023-07-13T10:44:40;99033.50;;;26.10;41.76
73297;BME280;61524;50.938;11.396;2023-07-13T10:47:10;99037.94;;;26.30;41.75
73297;BME280;61524;50.938;11.396;2023-07-13T10:49:38;99041.72;;;26.10;41.54
73297;BME280;61524;50.938;11.396;2023-07-13T10:52:05;99048.22;;;25.65;41.94
73297;BME280;61524;50.938;11.396;2023-07-13T10:54:32;99049.41;;;25.52;42.82
73297;BME280;61524;50.938;11.396;2023-07-13T10:59:47;99032.66;;;26.09;43.97
73297;BME280;61524;50.938;11.396;2023-07-13T11:02:27;99048.25;;;25.93;40.90
73297;BME280;61524;50.938;11.396;2023-07-13T11:04:55;99039.06;;;26.13;41.41
73297;BME280;61524;50.938;11.396;2023-07-13T11:07:30;99049.66;;;26.15;41.06
73297;BME280;61524;50.938;11.396;2023-07-13T11:10:04;99055.84;;;25.84;41.85
73297;BME280;61524;50.938;11.396;2023-07-13T11:12:50;99043.03;;;26.60;41.13
73297;BME280;61524;50.938;11.396;2023-07-13T11:15:29;99034.50;;;25.89;41.45
73297;BME280;61524;50.938;11.396;2023-07-13T11:17:55;99036.69;;;25.72;42.36
73297;BME280;61524;50.938;11.396;2023-07-13T11:20:39;99034.38;;;25.46;42.74
73297;BME280;61524;50.938;11.396;2023-07-13T11:25:38;99036.16;;;25.54;43.21
73297;BME280;61524;50.938;11.396;2023-07-13T11:30:41;99027.81;;;25.75;43.21
73297;BME280;61524;50.938;11.396;2023-07-13T11:35:53;99020.91;;;26.37;42.45
73297;BME280;61524;50.938;11.396;2023-07-13T11:39:00;99028.09;;;26.57;42.06
73297;BME280;61524;50.938;11.396;2023-07-13T11:41:34;99025.00;;;26.75;41.49
73297;BME280;61524;50.938;11.396;2023-07-13T11:44:15;99029.34;;;26.76;41.78
73297;BME280;61524;50.938;11.396;2023-07-13T11:46:50;99026.31;;;26.97;41.51
73297;BME280;61524;50.938;11.396;2023-07-13T11:49:22;99031.63;;;26.89;41.32
73297;BME280;61524;50.938;11.396;2023-07-13T11:51:48;99032.78;;;26.57;40.79
73297;BME280;61524;50.938;11.396;2023-07-13T11:57:17;99031.09;;;26.84;40.21
73297;BME280;61524;50.938;11.396;2023-07-13T11:59:46;99029.81;;;27.29;40.98
73297;BME280;61524;50.938;11.396;2023-07-13T12:04:51;99029.69;;;27.60;40.06
73297;BME280;61524;50.938;11.396;2023-07-13T12:07:18;99031.09;;;26.68;41.60
73297;BME280;61524;50.938;11.396;2023-07-13T12:09:45;99037.06;;;26.26;42.42
73297;BME280;61524;50.938;11.396;2023-07-13T12:12:14;99026.75;;;26.07;42.43
73297;BME280;61524;50.938;11.396;2023-07-13T12:14:40;99036.88;;;26.35;42.11
73297;BME280;61524;50.938;11.396;2023-07-13T12:17:18;99035.25;;;26.18;42.00
73297;BME280;61524;50.938;11.396;2023-07-13T12:19:44;99041.19;;;25.92;42.16
73297;BME280;61524;50.938;11.396;2023-07-13T12:22:13;99028.13;;;26.29;41.95
73297;BME280;61524;50.938;11.396;2023-07-13T12:24:40;99046.31;;;26.50;42.83
73297;BME280;61524;50.938;11.396;2023-07-13T12:27:18;99035.47;;;26.41;42.23
73297;BME280;61524;50.938;11.396;2023-07-13T12:30:15;99039.88;;;26.30;42.75
73297;BME280;61524;50.938;11.396;2023-07-13T12:33:00;99043.91;;;26.20;41.42
73297;BME280;61524;50.938;11.396;2023-07-13T12:35:30;99037.09;;;26.42;41.40
73297;BME280;61524;50.938;11.396;2023-07-13T12:37:58;99049.09;;;26.37;41.30
73297;BME280;61524;50.938;11.396;2023-07-13T12:40:31;99047.22;;;25.98;42.14
73297;BME280;61524;50.938;11.396;2023-07-13T12:42:58;99042.28;;;26.03;41.64
73297;BME280;61524;50.938;11.396;2023-07-13T12:45:26;99046.72;;;26.08;41.92
73297;BME280;61524;50.938;11.396;2023-07-13T12:48:04;99034.03;;;26.15;41.63
73297;BME280;61524;50.938;11.396;2023-07-13T12:50:39;99034.97;;;26.51;41.29
73297;BME280;61524;50.938;11.396;2023-07-13T12:53:09;99041.81;;;26.29;41.31
73297;BME280;61524;50.938;11.396;2023-07-13T12:55:46;99039.41;;;26.12;41.73
73297;BME280;61524;50.938;11.396;2023-07-13T12:58:30;99047.00;;;26.47;41.20
73297;BME280;61524;50.938;11.396;2023-07-13T13:00:57;99037.78;;;26.39;40.77
73297;BME280;61524;50.938;11.396;2023-07-13T13:03:35;99043.75;;;26.73;40.72
73297;BME280;61524;50.938;11.396;2023-07-13T13:08:41;99035.94;;;26.90;40.18
73297;BME280;61524;50.938;11.396;2023-07-13T13:11:09;99032.88;;;27.08;40.73
73297;BME280;61524;50.938;11.396;2023-07-13T13:13:35;99035.66;;;27.27;40.88
73297;BME280;61524;50.938;11.396;2023-07-13T13:16:14;99038.78;;;26.78;40.79
73297;BME280;61524;50.938;11.396;2023-07-13T13:18:42;99050.59;;;26.35;41.06
73297;BME280;61524;50.938;11.396;2023-07-13T13:21:09;99038.81;;;26.34;41.15
73297;BME280;61524;50.938;11.396;2023-07-13T13:23:35;99042.78;;;26.21;41.64
73297;BME280;61524;50.938;11.396;2023-07-13T13:26:01;99041.94;;;26.33;41.67
73297;BME280;61524;50.938;11.396;2023-07-13T13:28:27;99038.97;;;26.26;41.67